Leyendecker II PSRC Data

Date Time Air Temperature Relative Humidity Dewpoint Windchill Heat Index Wind Speed Wind Dir. Rain Solar Radiation Soil Temperature
2m 2m 3m 3m 10cm
US/Mountain F % F F F MPH deg in MJ/m^2 F
max avg avg
2021-10-14 00:05:00 46.0 87.5 42.5 46.0 46.0 0.0 0.0 0.0 121.8 0.0 0.00 0.0000000 67.4
2021-10-14 00:10:00 46.0 88.0 42.6 46.0 46.0 1.9 1.9 0.5 166.6 169.3 0.00 0.0000000 67.4
2021-10-14 00:15:00 46.0 86.1 42.0 46.0 46.0 1.2 2.1 1.6 226.6 193.3 0.00 0.0000000 67.4
2021-10-14 00:20:00 45.8 85.9 41.8 45.8 45.8 0.0 1.0 0.3 230.2 206.7 0.00 0.0000000 67.4
2021-10-14 00:25:00 45.5 86.8 41.8 45.5 45.5 0.0 0.0 0.0 182.5 0.0 0.00 0.0000000 67.3
2021-10-14 00:30:00 45.3 87.0 41.6 45.3 45.3 0.0 0.0 0.0 289.6 0.0 0.00 0.0000000 67.3
2021-10-14 00:35:00 45.0 88.3 41.7 45.0 45.0 0.0 1.7 0.9 295.8 293.7 0.00 0.0000000 67.3
2021-10-14 00:40:00 44.7 88.3 41.5 44.7 44.7 0.0 0.8 0.0 273.6 286.9 0.00 0.0000000 67.3
2021-10-14 00:45:00 44.5 89.5 41.6 44.5 44.5 1.3 1.5 0.3 290.8 288.9 0.00 0.0000000 67.2
2021-10-14 00:50:00 44.2 88.6 41.1 44.2 44.2 1.7 1.9 1.4 320.1 308.8 0.00 0.0000000 67.2
2021-10-14 00:55:00 44.2 88.1 40.9 44.2 44.2 0.8 1.9 1.2 334.4 315.6 0.00 0.0000000 67.2
2021-10-14 01:00:00 44.1 87.9 40.8 44.1 44.1 0.0 0.0 0.0 329.2 0.0 0.00 0.0000000 67.2
2021-10-14 01:05:00 43.9 86.5 40.1 43.9 43.9 0.0 0.0 0.0 260.7 0.0 0.00 0.0000000 67.2
2021-10-14 01:10:00 43.9 89.7 41.1 43.9 43.9 1.0 2.1 0.9 216.1 253.5 0.00 0.0000000 67.1
2021-10-14 01:15:00 44.1 91.3 41.7 44.1 44.1 1.5 1.5 0.5 248.0 254.5 0.00 0.0000000 67.1
2021-10-14 01:20:00 44.0 90.5 41.4 44.0 44.0 1.9 4.0 2.5 204.2 196.6 0.00 0.0000000 67.1
2021-10-14 01:25:00 43.8 89.9 41.1 43.8 43.8 2.2 2.2 1.2 297.2 246.5 0.00 0.0000000 67.0
2021-10-14 01:30:00 43.8 89.0 40.7 43.8 43.8 1.3 2.6 2.0 223.3 295.7 0.00 0.0000000 67.0
2021-10-14 01:35:00 43.8 88.7 40.7 43.8 43.8 0.0 2.4 1.3 9.5 187.1 0.00 0.0000000 67.0
2021-10-14 01:40:00 43.5 87.4 40.0 43.5 43.5 0.0 0.0 0.0 218.8 0.0 0.00 0.0000000 67.0
2021-10-14 01:45:00 43.2 86.3 39.4 43.2 43.2 1.3 1.9 1.1 319.7 320.3 0.00 0.0000000 67.0
2021-10-14 01:50:00 43.1 85.3 39.0 43.1 43.1 0.0 1.3 0.5 313.9 335.9 0.00 0.0000000 66.9
2021-10-14 01:55:00 42.8 85.9 38.8 42.8 42.8 0.0 0.0 0.0 123.4 0.0 0.00 0.0000000 66.9
2021-10-14 02:00:00 42.7 88.2 39.4 42.7 42.7 0.0 0.0 0.0 121.2 0.0 0.00 0.0000000 66.9
2021-10-14 02:05:00 42.7 89.7 39.9 42.7 42.7 0.0 0.0 0.0 170.0 0.0 0.00 0.0000000 66.9
2021-10-14 02:10:00 42.8 90.2 40.1 42.8 42.8 0.0 0.0 0.0 188.9 0.0 0.00 0.0000000 66.8
2021-10-14 02:15:00 42.7 89.0 39.6 42.7 42.7 1.7 2.4 1.4 218.2 193.1 0.00 0.0000000 66.8
2021-10-14 02:20:00 42.7 90.7 40.1 42.7 42.7 1.5 1.9 1.6 313.7 262.4 0.00 0.0000000 66.8
2021-10-14 02:25:00 42.3 89.3 39.4 42.3 42.3 2.2 2.6 1.4 308.8 305.7 0.00 0.0000000 66.8
2021-10-14 02:30:00 42.0 89.3 39.1 42.0 42.0 0.0 2.1 0.5 340.8 331.3 0.00 0.0000000 66.8
2021-10-14 02:35:00 41.9 85.6 37.9 41.9 41.9 1.0 2.1 1.3 323.3 323.4 0.00 0.0000000 66.7
2021-10-14 02:40:00 41.8 87.0 38.2 41.8 41.8 0.0 1.5 0.9 334.8 298.0 0.00 0.0000000 66.7
2021-10-14 02:45:00 41.6 88.2 38.3 41.6 41.6 0.8 1.5 0.6 314.4 324.7 0.00 0.0000000 66.7
2021-10-14 02:50:00 41.3 89.8 38.5 41.3 41.3 1.5 1.5 0.4 329.9 302.2 0.00 0.0000000 66.7
2021-10-14 02:55:00 41.2 89.0 38.2 41.2 41.2 0.0 1.7 1.2 278.4 311.3 0.00 0.0000000 66.6
2021-10-14 03:00:00 41.1 89.0 38.1 41.1 41.1 0.0 0.0 0.0 342.2 0.0 0.00 0.0000000 66.6
2021-10-14 03:05:00 41.1 88.5 37.9 41.1 41.1 0.0 1.2 0.3 295.7 317.6 0.00 0.0000000 66.6
2021-10-14 03:10:00 40.9 89.0 37.9 40.9 40.9 0.0 0.8 0.0 273.1 272.8 0.00 0.0000000 66.6
2021-10-14 03:15:00 40.8 88.9 37.7 40.8 40.8 0.0 0.0 0.0 351.5 0.0 0.00 0.0000000 66.6
2021-10-14 03:20:00 40.4 87.5 37.0 40.4 40.4 0.0 2.1 0.9 26.6 352.6 0.00 0.0000000 66.5
2021-10-14 03:25:00 40.6 88.5 37.5 40.6 40.6 1.2 1.7 1.0 300.0 327.4 0.00 0.0000000 66.5
2021-10-14 03:30:00 40.8 88.8 37.7 40.8 40.8 0.0 1.7 0.7 261.7 292.4 0.00 0.0000000 66.5
2021-10-14 03:35:00 40.9 90.6 38.4 40.9 40.9 0.0 0.0 0.0 261.2 0.0 0.00 0.0000000 66.5
2021-10-14 03:40:00 40.8 90.9 38.4 40.8 40.8 0.0 0.0 0.0 260.1 0.0 0.00 0.0000000 66.5
2021-10-14 03:45:00 40.6 91.4 38.3 40.6 40.6 0.8 0.8 0.1 328.7 329.3 0.00 0.0000000 66.5
2021-10-14 03:50:00 39.8 85.8 35.9 39.8 39.8 0.0 2.2 1.1 299.6 318.9 0.00 0.0000000 66.4
2021-10-14 03:55:00 39.9 88.4 36.8 39.9 39.9 0.0 1.9 0.8 297.8 303.4 0.00 0.0000000 66.4
2021-10-14 04:00:00 39.9 88.7 36.8 39.9 39.9 0.0 1.2 0.2 4.4 298.1 0.00 0.0000000 66.4
2021-10-14 04:05:00 39.7 86.1 35.8 39.7 39.7 2.2 2.8 1.7 337.5 335.5 0.00 0.0000000 66.4
2021-10-14 04:10:00 39.6 86.7 36.0 39.6 39.6 0.0 2.6 1.5 15.9 342.8 0.00 0.0000000 66.3
2021-10-14 04:15:00 39.6 88.3 36.4 39.6 39.6 0.0 0.0 0.0 44.0 0.0 0.00 0.0000000 66.3
2021-10-14 04:20:00 39.7 90.0 37.0 39.7 39.7 0.0 0.0 0.0 43.3 0.0 0.00 0.0000000 66.3
2021-10-14 04:25:00 39.7 91.5 37.4 39.7 39.7 0.0 0.0 0.0 104.8 0.0 0.00 0.0000000 66.3
2021-10-14 04:30:00 39.7 91.6 37.5 39.7 39.7 0.0 0.0 0.0 92.8 0.0 0.00 0.0000000 66.3
2021-10-14 04:35:00 39.5 92.2 37.4 39.5 39.5 0.0 0.0 0.0 287.0 0.0 0.00 0.0000000 66.2
2021-10-14 04:40:00 39.6 93.1 37.8 39.6 39.6 0.0 0.0 0.0 243.6 0.0 0.00 0.0000000 66.2
2021-10-14 04:45:00 39.7 93.4 38.0 39.7 39.7 0.0 0.0 0.0 290.5 0.0 0.00 0.0000000 66.2
2021-10-14 04:50:00 39.7 93.5 37.9 39.7 39.7 0.0 0.0 0.0 282.2 0.0 0.00 0.0000000 66.2
2021-10-14 04:55:00 39.1 92.9 37.2 39.1 39.1 0.0 0.0 0.0 322.5 0.0 0.00 0.0000000 66.2
2021-10-14 05:00:00 38.6 90.7 36.1 38.6 38.6 1.3 1.3 0.3 0.9 359.7 0.00 0.0000000 66.1
2021-10-14 05:05:00 38.6 90.5 36.1 38.6 38.6 1.3 2.4 1.7 18.5 7.3 0.00 0.0000000 66.1
2021-10-14 05:10:00 38.7 91.0 36.3 38.7 38.7 0.0 1.3 0.4 305.6 328.8 0.00 0.0000000 66.1
2021-10-14 05:15:00 38.7 91.0 36.3 38.7 38.7 0.0 0.0 0.0 286.5 0.0 0.00 0.0000000 66.1
2021-10-14 05:20:00 38.4 90.9 35.9 38.4 38.4 0.0 0.0 0.0 286.5 0.0 0.00 0.0000000 66.1
2021-10-14 05:25:00 38.4 92.4 36.4 38.4 38.4 0.0 0.0 0.0 208.6 0.0 0.00 0.0000000 66.0
2021-10-14 05:30:00 38.6 93.0 36.8 38.6 38.6 1.3 1.3 0.3 168.5 170.2 0.00 0.0000000 66.0
2021-10-14 05:35:00 38.7 93.2 36.9 38.7 38.7 0.0 1.2 0.3 166.8 171.9 0.00 0.0000000 66.0
2021-10-14 05:40:00 38.7 93.2 36.9 38.7 38.7 0.0 0.0 0.0 194.4 0.0 0.00 0.0000000 65.9
2021-10-14 05:45:00 38.6 93.3 36.9 38.6 38.6 0.0 0.0 0.0 199.6 0.0 0.00 0.0000000 65.9
2021-10-14 05:50:00 38.6 92.9 36.7 38.6 38.6 0.0 0.0 0.0 199.6 0.0 0.00 0.0000000 65.9
2021-10-14 05:55:00 38.4 93.1 36.6 38.4 38.4 0.0 0.0 0.0 179.7 0.0 0.00 0.0000000 65.9
2021-10-14 06:00:00 38.3 93.2 36.5 38.3 38.3 0.0 0.0 0.0 147.0 0.0 0.00 0.0000000 65.9
2021-10-14 06:05:00 38.0 93.0 36.2 38.0 38.0 0.0 0.0 0.0 253.6 0.0 0.00 0.0000000 65.9
2021-10-14 06:10:00 38.1 93.5 36.4 38.1 38.1 0.0 0.0 0.0 177.7 0.0 0.00 0.0000000 65.8
2021-10-14 06:15:00 38.1 93.8 36.4 38.1 38.1 0.0 0.0 0.0 211.6 0.0 0.00 0.0000000 65.8
2021-10-14 06:20:00 38.1 93.8 36.5 38.1 38.1 0.0 0.0 0.0 268.5 0.0 0.00 0.0000000 65.8
2021-10-14 06:25:00 38.1 94.0 36.6 38.1 38.1 0.0 0.0 0.0 310.5 0.0 0.00 0.0000000 65.8
2021-10-14 06:30:00 38.0 94.5 36.5 38.0 38.0 0.0 0.0 0.0 279.8 0.0 0.00 0.0000000 65.7
2021-10-14 06:35:00 38.0 94.4 36.5 38.0 38.0 0.0 0.0 0.0 161.5 0.0 0.00 0.0000000 65.8
2021-10-14 06:40:00 37.6 93.9 36.0 37.6 37.6 0.0 0.0 0.0 324.9 0.0 0.00 0.0000000 65.7
2021-10-14 06:45:00 37.2 93.3 35.5 37.2 37.2 0.8 1.7 0.9 313.0 314.3 0.00 0.0000000 65.7
2021-10-14 06:50:00 37.5 93.4 35.7 37.5 37.5 0.0 0.0 0.0 38.8 0.0 0.00 0.0000000 65.7
2021-10-14 06:55:00 37.3 92.8 35.4 37.3 37.3 0.0 1.3 0.4 10.7 13.2 0.00 0.0000000 65.7
2021-10-14 07:00:00 36.9 91.8 34.8 36.9 36.9 0.0 0.0 0.0 29.3 0.0 0.00 0.0000000 65.6
2021-10-14 07:05:00 37.3 93.6 35.6 37.3 37.3 0.0 0.0 0.0 215.9 0.0 0.00 0.0003058 65.6
2021-10-14 07:10:00 37.8 93.6 36.2 37.8 37.8 2.4 2.8 1.0 194.2 198.0 0.00 0.0010565 65.6
2021-10-14 07:15:00 37.3 92.9 35.4 37.3 37.3 2.1 2.2 2.1 193.5 189.2 0.00 0.0017292 65.6
2021-10-14 07:20:00 37.2 92.5 35.2 37.2 37.2 1.7 1.7 1.5 178.9 184.5 0.00 0.0030662 65.6
2021-10-14 07:25:00 37.2 92.1 35.1 37.2 37.2 1.2 2.2 1.7 176.1 183.5 0.00 0.0074410 65.5
2021-10-14 07:30:00 37.5 92.6 35.5 37.5 37.5 0.0 1.2 0.1 33.1 177.3 0.00 0.0147480 65.5
2021-10-14 07:35:00 37.5 90.5 35.0 37.5 37.5 0.0 0.0 0.0 5.4 0.0 0.00 0.0200084 65.5
2021-10-14 07:40:00 38.1 90.2 35.5 38.1 38.1 0.0 0.0 0.0 29.8 0.0 0.00 0.0252643 65.5
2021-10-14 07:45:00 39.5 90.9 37.1 39.5 39.5 0.0 0.0 0.0 6.0 0.0 0.00 0.0304879 65.5
2021-10-14 07:50:00 40.8 85.6 36.8 40.8 40.8 0.0 0.0 0.0 157.3 0.0 0.00 0.0356915 65.4
2021-10-14 07:55:00 41.2 84.5 36.9 41.2 41.2 0.0 0.0 0.0 173.8 0.0 0.00 0.0406589 65.4
2021-10-14 08:00:00 41.9 83.9 37.3 41.9 41.9 0.0 0.0 0.0 178.5 0.0 0.00 0.0453899 65.4
2021-10-14 08:05:00 43.2 82.0 38.1 43.2 43.2 0.0 0.0 0.0 32.6 0.0 0.00 0.0501823 65.4
2021-10-14 08:10:00 44.9 80.1 39.1 44.9 44.9 0.0 0.0 0.0 144.1 0.0 0.00 0.0546798 65.4
2021-10-14 08:15:00 46.2 76.7 39.3 46.2 46.2 0.0 0.0 0.0 165.8 0.0 0.00 0.0585624 65.4
2021-10-14 08:20:00 46.5 74.7 38.9 46.5 46.5 0.0 0.0 0.0 149.1 0.0 0.00 0.0632639 65.3
2021-10-14 08:25:00 47.2 72.7 38.9 47.2 47.2 0.0 0.0 0.0 183.6 0.0 0.00 0.0674512 65.3
2021-10-14 08:30:00 48.5 64.2 36.9 48.5 48.5 0.0 0.0 0.0 156.2 0.0 0.00 0.0720022 65.3
2021-10-14 08:35:00 50.5 62.1 38.0 50.5 50.5 0.0 0.0 0.0 150.2 0.0 0.00 0.0757816 65.3
2021-10-14 08:40:00 52.2 60.2 38.8 52.2 52.2 0.0 0.0 0.0 351.3 0.0 0.00 0.0809792 65.3
2021-10-14 08:45:00 53.3 55.5 37.7 53.3 53.3 0.0 0.0 0.0 140.8 0.0 0.00 0.0851157 65.3
2021-10-14 08:50:00 55.4 58.7 41.1 55.4 55.4 0.0 0.0 0.0 106.0 0.0 0.00 0.0890728 65.2
2021-10-14 08:55:00 55.7 48.4 36.6 55.7 55.7 0.0 0.0 0.0 3.0 0.0 0.00 0.0943102 65.2
2021-10-14 09:00:00 56.0 38.6 31.1 56.0 56.0 0.0 0.0 0.0 312.5 0.0 0.00 0.1010783 65.2
2021-10-14 09:05:00 56.5 41.9 33.6 56.5 56.5 1.7 1.9 1.2 28.7 340.2 0.00 0.1064926 65.2
2021-10-14 09:10:00 56.4 36.3 30.0 56.4 56.4 0.0 2.8 1.5 310.5 34.3 0.00 0.1120982 65.2
2021-10-14 09:15:00 57.7 38.3 32.4 57.7 57.7 2.6 2.6 1.3 81.5 112.4 0.00 0.1163677 65.2
2021-10-14 09:20:00 58.6 37.6 32.8 58.6 58.6 0.8 2.6 0.8 20.6 50.2 0.00 0.1211832 65.2
2021-10-14 09:25:00 59.6 40.5 35.6 59.6 59.6 0.8 1.5 0.5 131.3 325.8 0.00 0.1268205 65.2
2021-10-14 09:30:00 60.3 39.1 35.3 60.3 60.3 1.3 2.2 0.8 276.4 350.8 0.00 0.1322695 65.2
2021-10-14 09:35:00 60.9 35.8 33.6 60.9 60.9 0.0 2.4 0.9 251.5 313.5 0.00 0.1368788 65.2
2021-10-14 09:40:00 62.2 32.2 32.1 62.2 62.2 1.9 1.9 0.4 212.9 240.7 0.00 0.1420566 65.2
2021-10-14 09:45:00 62.3 28.2 29.0 62.3 62.3 3.0 3.8 2.5 302.0 269.4 0.00 0.1469756 65.2
2021-10-14 09:50:00 63.0 30.5 31.4 63.0 63.0 2.1 3.7 2.4 194.1 261.1 0.00 0.1518903 65.2
2021-10-14 09:55:00 63.4 26.1 28.0 63.4 63.4 3.8 5.1 2.9 297.2 267.2 0.00 0.1564960 65.2
2021-10-14 10:00:00 64.9 27.4 30.4 64.9 64.9 0.0 3.0 1.4 157.3 234.4 0.00 0.1611994 65.2
2021-10-14 10:05:00 65.2 30.5 33.4 65.2 65.2 2.8 4.0 2.3 245.4 254.4 0.00 0.1657442 65.2
2021-10-14 10:10:00 65.5 26.1 29.7 65.5 65.5 2.8 5.3 3.0 243.6 266.1 0.00 0.1703741 65.3
2021-10-14 10:15:00 64.9 23.9 27.1 64.9 64.9 5.5 6.0 4.6 247.9 231.9 0.00 0.1750413 65.3
2021-10-14 10:20:00 65.2 23.0 26.4 65.2 65.2 4.0 6.3 4.7 271.6 262.5 0.00 0.1797816 65.3
2021-10-14 10:25:00 66.0 22.4 26.5 66.0 66.0 6.0 6.9 4.3 280.2 273.0 0.00 0.1842081 65.3
2021-10-14 10:30:00 66.3 21.1 25.3 66.3 66.3 5.1 7.4 5.1 244.3 265.1 0.00 0.1882099 65.4
2021-10-14 10:35:00 65.8 19.8 23.3 65.8 65.8 5.3 9.7 6.2 266.6 265.3 0.00 0.1921508 65.4
2021-10-14 10:40:00 66.5 20.2 24.4 66.5 66.5 6.0 9.4 6.8 243.1 283.7 0.00 0.1959569 65.4
2021-10-14 10:45:00 66.9 19.5 24.0 66.9 66.9 8.7 9.7 6.6 272.1 263.7 0.00 0.1998525 65.4
2021-10-14 10:50:00 67.4 17.4 21.6 67.4 67.4 10.3 11.0 7.2 302.2 288.2 0.00 0.2032716 65.5
2021-10-14 10:55:00 67.3 20.5 25.4 67.3 67.3 6.3 9.6 7.3 235.7 272.1 0.00 0.2071037 65.5
2021-10-14 11:00:00 67.8 17.7 22.3 67.8 67.8 6.7 10.8 6.5 274.7 258.2 0.00 0.2107740 65.6
2021-10-14 11:05:00 67.6 21.1 26.4 67.6 67.6 2.4 10.5 6.7 230.7 258.6 0.00 0.2137766 65.6
2021-10-14 11:10:00 67.9 19.1 24.3 67.9 67.9 5.3 12.8 6.6 269.6 260.5 0.00 0.2170955 65.6
2021-10-14 11:15:00 68.1 18.5 23.5 68.1 68.1 6.5 11.0 8.1 279.1 266.8 0.00 0.2200785 65.6
2021-10-14 11:20:00 67.8 18.1 22.9 67.8 67.8 5.5 11.5 7.0 223.8 260.1 0.00 0.2230653 65.7
2021-10-14 11:25:00 68.1 17.7 22.5 68.1 68.1 11.7 11.7 7.3 279.6 256.6 0.00 0.2258046 65.7
2021-10-14 11:30:00 68.3 16.6 21.2 68.3 68.3 7.2 11.7 7.6 304.7 269.8 0.00 0.2279507 65.7
2021-10-14 11:35:00 68.3 17.7 22.7 68.3 68.3 6.7 13.3 8.2 244.8 267.5 0.00 0.2308290 65.8
2021-10-14 11:40:00 69.1 17.4 23.0 69.1 69.1 8.3 9.2 5.2 287.2 266.4 0.00 0.2338545 65.8
2021-10-14 11:45:00 69.4 19.0 25.3 69.4 69.4 7.8 10.8 6.2 251.7 245.7 0.00 0.2355547 65.8
2021-10-14 11:50:00 69.3 16.2 21.5 69.3 69.3 7.4 10.1 7.0 257.7 265.6 0.00 0.2371319 65.9
2021-10-14 11:55:00 69.3 17.3 22.9 69.3 69.3 8.1 9.6 6.1 257.1 257.4 0.00 0.2394493 65.9
2021-10-14 12:00:00 69.6 16.0 21.5 69.6 69.6 4.4 9.6 6.5 197.1 227.8 0.00 0.2417682 65.9
2021-10-14 12:05:00 69.1 17.7 23.4 69.1 69.1 6.5 10.6 7.0 224.3 247.2 0.00 0.2428344 66.0
2021-10-14 12:10:00 69.2 16.5 21.8 69.2 69.2 7.8 12.8 7.0 218.6 238.0 0.00 0.2453216 66.0
2021-10-14 12:15:00 70.3 18.0 24.8 70.3 70.3 3.7 10.6 6.4 273.7 246.1 0.00 0.2463784 66.0
2021-10-14 12:20:00 69.5 17.3 23.2 69.5 69.5 5.8 11.2 7.9 279.1 241.7 0.00 0.2479118 66.1
2021-10-14 12:25:00 70.3 15.3 20.8 70.3 70.3 7.2 9.4 6.3 258.2 252.0 0.00 0.2489374 66.1
2021-10-14 12:30:00 70.8 17.2 24.1 70.8 70.8 6.2 9.9 6.9 285.3 268.1 0.00 0.2488897 66.2
2021-10-14 12:35:00 71.0 16.4 23.1 71.0 71.0 7.1 9.6 6.4 263.9 258.8 0.00 0.2504222 66.2
2021-10-14 12:40:00 71.3 14.9 21.1 71.3 71.3 7.8 9.9 6.6 287.8 263.7 0.00 0.2496936 66.3
2021-10-14 12:45:00 71.1 16.3 23.1 71.1 71.1 7.2 9.0 6.1 243.8 242.6 0.00 0.2498700 66.3
2021-10-14 12:50:00 71.0 15.3 21.4 71.0 71.0 4.6 12.6 8.2 272.1 277.5 0.00 0.2506859 66.3
2021-10-14 12:55:00 71.5 14.4 20.4 71.5 71.5 8.0 10.1 6.9 276.0 274.1 0.00 0.2514455 66.4
2021-10-14 13:00:00 71.7 14.4 20.6 71.7 71.7 5.3 10.8 6.6 222.7 270.7 0.00 0.2503227 66.4
2021-10-14 13:05:00 72.3 13.3 19.2 72.3 72.3 7.2 10.1 5.7 271.7 279.0 0.00 0.2493809 66.5
2021-10-14 13:10:00 72.0 13.4 19.0 72.0 72.0 11.5 11.5 7.4 288.6 277.9 0.00 0.2494134 66.5
2021-10-14 13:15:00 71.7 15.1 21.6 71.7 71.7 6.5 11.3 8.2 244.3 277.2 0.00 0.2503100 66.6
2021-10-14 13:20:00 71.5 15.0 21.4 71.5 71.5 8.3 13.3 8.1 289.6 257.8 0.00 0.2482963 66.6
2021-10-14 13:25:00 71.5 12.3 16.7 71.5 71.5 4.9 10.5 6.8 318.2 275.8 0.00 0.2480649 66.6
2021-10-14 13:30:00 71.8 13.6 19.3 71.8 71.8 9.4 12.2 7.7 252.4 261.7 0.00 0.2462546 66.7
2021-10-14 13:35:00 71.5 13.4 18.6 71.5 71.5 5.8 13.7 7.5 308.1 267.5 0.00 0.2460456 66.7
2021-10-14 13:40:00 71.9 14.9 21.5 71.9 71.9 5.5 7.6 5.4 270.9 260.5 0.00 0.2438481 66.8
2021-10-14 13:45:00 72.3 12.5 17.8 72.3 72.3 11.0 12.2 7.9 278.0 264.2 0.00 0.2433314 66.8
2021-10-14 13:50:00 72.2 12.1 17.0 72.2 72.2 9.7 12.6 8.5 222.1 265.3 0.00 0.2420549 66.8
2021-10-14 13:55:00 71.6 13.8 19.5 71.6 71.6 9.7 9.7 5.7 274.7 235.4 0.00 0.2401304 66.9
2021-10-14 14:00:00 72.6 12.9 18.7 72.6 72.6 6.3 12.1 7.5 262.6 272.2 0.00 0.2391711 66.9
2021-10-14 14:05:00 72.2 12.4 17.5 72.2 72.2 8.1 8.1 5.5 283.9 256.9 0.00 0.2357239 67.0
2021-10-14 14:10:00 72.6 12.1 17.3 72.6 72.6 11.0 18.5 7.1 256.1 263.3 0.00 0.2341832 67.0
2021-10-14 14:15:00 72.8 11.5 16.2 72.8 72.8 7.4 10.1 7.5 293.8 269.5 0.00 0.2314864 67.0
2021-10-14 14:20:00 73.2 11.7 16.8 73.2 73.2 8.7 9.4 7.0 279.9 277.3 0.00 0.2304283 67.1
2021-10-14 14:25:00 72.9 11.3 15.9 72.9 72.9 6.9 9.2 6.5 173.3 247.6 0.00 0.2268709 67.1
2021-10-14 14:30:00 72.8 12.4 18.0 72.8 72.8 6.9 7.8 6.2 201.9 208.4 0.00 0.2229249 67.2
2021-10-14 14:35:00 73.0 13.7 20.4 73.0 73.0 6.0 9.2 6.2 311.2 219.0 0.00 0.2212304 67.2
2021-10-14 14:40:00 73.8 13.9 21.5 73.8 73.8 3.7 9.6 5.5 207.1 257.1 0.00 0.2181554 67.3
2021-10-14 14:45:00 73.9 12.3 18.7 73.9 73.9 4.9 9.6 6.4 260.7 254.0 0.00 0.2156100 67.3
2021-10-14 14:50:00 73.9 15.1 23.5 73.9 73.9 3.7 9.0 5.6 318.2 265.7 0.00 0.2121441 67.3
2021-10-14 14:55:00 74.0 11.6 17.4 74.0 74.0 11.7 11.7 6.4 260.5 250.3 0.00 0.2086437 67.4
2021-10-14 15:00:00 74.0 11.3 16.7 74.0 74.0 5.6 13.5 7.6 264.5 262.5 0.00 0.2053240 67.4
2021-10-14 15:05:00 74.4 13.8 21.7 74.4 74.4 4.4 10.5 6.8 229.4 288.1 0.00 0.2015027 67.4
2021-10-14 15:10:00 74.2 15.3 24.1 74.2 74.2 6.9 11.2 6.1 300.6 238.9 0.00 0.1982860 67.5
2021-10-14 15:15:00 74.1 10.6 15.3 74.1 74.1 7.1 11.0 6.6 270.5 269.3 0.00 0.1941087 67.5
2021-10-14 15:20:00 74.0 11.2 16.5 74.0 74.0 10.3 10.3 6.9 265.4 241.7 0.00 0.1911509 67.6
2021-10-14 15:25:00 73.7 12.1 18.1 73.7 73.7 6.5 9.0 6.5 199.4 228.6 0.00 0.1865334 67.6
2021-10-14 15:30:00 73.3 12.8 19.1 73.3 73.3 4.4 11.0 7.6 238.8 254.2 0.00 0.1823032 67.6
2021-10-14 15:35:00 74.1 12.3 18.7 74.1 74.1 6.3 13.1 8.1 299.4 267.7 0.00 0.1781918 67.6
2021-10-14 15:40:00 74.1 11.7 17.6 74.1 74.1 6.2 9.0 7.0 239.7 261.9 0.00 0.1742397 67.7
2021-10-14 15:45:00 73.9 12.0 18.0 73.9 73.9 4.9 12.1 7.0 224.7 228.1 0.00 0.1696880 67.7
2021-10-14 15:50:00 73.7 11.7 17.3 73.7 73.7 4.9 10.3 6.7 239.4 246.1 0.00 0.1619650 67.7
2021-10-14 15:55:00 74.2 10.4 15.1 74.2 74.2 5.3 8.1 6.0 255.8 257.1 0.00 0.1348391 67.7
2021-10-14 16:00:00 74.2 12.0 18.3 74.2 74.2 6.0 11.5 7.1 284.5 265.2 0.00 0.1551057 67.8
2021-10-14 16:05:00 74.4 12.5 19.4 74.4 74.4 5.3 7.1 4.9 260.9 234.2 0.00 0.1497161 67.8
2021-10-14 16:10:00 74.4 11.9 18.3 74.4 74.4 5.8 9.7 6.0 227.1 268.4 0.00 0.1447907 67.8
2021-10-14 16:15:00 74.0 10.9 16.0 74.0 74.0 9.6 11.7 6.8 313.6 257.2 0.00 0.1401127 67.8
2021-10-14 16:20:00 74.0 11.1 16.4 74.0 74.0 7.8 11.9 6.5 243.4 258.7 0.00 0.1351278 67.9
2021-10-14 16:25:00 73.5 11.7 17.2 73.5 73.5 5.3 9.7 7.3 260.6 246.6 0.00 0.1296907 67.9
2021-10-14 16:30:00 73.9 10.9 15.9 73.9 73.9 6.9 9.4 6.4 304.4 260.9 0.00 0.1249018 67.9
2021-10-14 16:35:00 74.0 11.9 17.9 74.0 74.0 11.0 11.0 6.4 259.4 259.5 0.00 0.1200628 67.9
2021-10-14 16:40:00 73.9 11.3 16.6 73.9 73.9 4.6 10.5 6.3 300.2 270.2 0.00 0.1145913 67.9
2021-10-14 16:45:00 73.9 11.3 16.6 73.9 73.9 8.0 10.3 5.7 289.8 268.3 0.00 0.1096753 67.9
2021-10-14 16:50:00 73.6 12.0 17.8 73.6 73.6 9.0 10.6 6.8 263.5 266.3 0.00 0.1039063 67.9
2021-10-14 16:55:00 73.4 13.4 20.2 73.4 73.4 4.6 7.6 5.5 259.8 262.3 0.00 0.0992998 67.9
2021-10-14 17:00:00 73.4 13.4 20.2 73.4 73.4 5.5 12.1 6.4 226.4 267.5 0.00 0.0945549 67.9
2021-10-14 17:05:00 73.1 13.0 19.3 73.1 73.1 5.5 10.6 6.1 211.9 260.9 0.00 0.0896210 67.9
2021-10-14 17:10:00 73.0 13.8 20.7 73.0 73.0 4.6 9.2 5.2 3.0 259.8 0.00 0.0844038 67.9
2021-10-14 17:15:00 72.8 13.3 19.5 72.8 72.8 8.0 11.2 6.5 246.0 271.3 0.00 0.0793552 67.9
2021-10-14 17:20:00 72.5 15.6 23.1 72.5 72.5 2.8 10.1 5.5 254.1 266.1 0.00 0.0742508 67.9
2021-10-14 17:25:00 72.4 13.5 19.7 72.4 72.4 7.2 9.0 4.8 280.5 266.7 0.00 0.0690079 67.9
2021-10-14 17:30:00 71.9 15.0 21.7 71.9 71.9 4.4 7.1 5.3 287.2 262.6 0.00 0.0641969 67.9
2021-10-14 17:35:00 71.7 14.7 21.1 71.7 71.7 5.8 8.5 4.8 281.7 269.9 0.00 0.0588909 67.9
2021-10-14 17:40:00 71.2 14.0 19.6 71.2 71.2 7.4 11.0 7.2 257.8 270.2 0.00 0.0537330 67.9
2021-10-14 17:45:00 70.8 13.6 18.5 70.8 70.8 9.7 10.8 7.0 290.3 269.2 0.00 0.0488188 67.9
2021-10-14 17:50:00 70.4 14.6 19.9 70.4 70.4 7.1 9.4 6.1 279.5 263.0 0.00 0.0438754 67.9
2021-10-14 17:55:00 70.0 14.8 19.9 70.0 70.0 4.0 10.8 6.7 215.6 259.8 0.00 0.0381193 67.9
2021-10-14 18:00:00 69.4 16.1 21.5 69.4 69.4 4.0 9.2 5.1 250.7 260.8 0.00 0.0304854 67.9
2021-10-14 18:05:00 68.7 16.9 21.9 68.7 68.7 3.0 7.2 4.4 238.8 269.0 0.00 0.0230671 67.9
2021-10-14 18:10:00 68.4 15.7 19.9 68.4 68.4 5.5 11.0 6.5 270.6 278.3 0.00 0.0064594 67.9
2021-10-14 18:15:00 68.3 15.1 19.0 68.3 68.3 8.5 10.1 7.0 280.2 270.5 0.00 0.0046250 67.9
2021-10-14 18:20:00 68.0 15.8 19.8 68.0 68.0 4.7 9.4 6.8 255.7 272.3 0.00 0.0036669 67.9
2021-10-14 18:25:00 67.5 16.2 20.0 67.5 67.5 4.4 8.8 5.4 274.5 275.3 0.00 0.0024403 67.9
2021-10-14 18:30:00 67.2 16.2 19.8 67.2 67.2 7.6 9.2 4.8 268.8 278.8 0.00 0.0013787 67.9
2021-10-14 18:35:00 66.9 16.4 19.8 66.9 66.9 3.0 6.7 5.2 286.1 278.9 0.00 0.0004305 67.9
2021-10-14 18:40:00 66.7 17.0 20.5 66.7 66.7 4.6 8.0 4.9 282.4 281.4 0.00 0.0000010 67.9
2021-10-14 18:45:00 66.4 16.9 20.1 66.4 66.4 4.2 6.5 4.2 299.3 281.0 0.00 0.0000000 67.9
2021-10-14 18:50:00 66.0 17.4 20.5 66.0 66.0 1.5 8.0 3.8 238.5 284.1 0.00 0.0000000 67.8
2021-10-14 18:55:00 65.3 17.6 20.2 65.3 65.3 2.6 5.6 3.2 310.6 299.9 0.00 0.0000000 67.8
2021-10-14 19:00:00 65.1 17.8 20.2 65.1 65.1 3.1 4.9 3.5 317.5 300.6 0.00 0.0000000 67.8
2021-10-14 19:05:00 64.1 23.5 26.1 64.1 64.1 3.3 4.0 3.4 288.3 320.3 0.00 0.0000000 67.8
2021-10-14 19:10:00 62.7 20.4 21.4 62.7 62.7 3.1 5.6 3.3 271.7 315.6 0.00 0.0000000 67.8
2021-10-14 19:15:00 63.3 20.2 21.7 63.3 63.3 4.2 5.5 3.7 251.6 266.4 0.00 0.0000000 67.7
2021-10-14 19:20:00 63.6 18.5 20.0 63.6 63.6 4.9 5.3 3.4 251.5 255.6 0.00 0.0000000 67.7
2021-10-14 19:25:00 64.9 17.8 20.2 64.9 64.9 4.4 8.1 4.6 228.9 227.8 0.00 0.0000000 67.7
2021-10-14 19:30:00 64.9 18.3 20.7 64.9 64.9 3.0 7.1 3.5 211.8 227.7 0.00 0.0000000 67.7
2021-10-14 19:35:00 64.9 17.5 19.7 64.9 64.9 2.4 5.3 3.1 230.1 221.4 0.00 0.0000000 67.7
2021-10-14 19:40:00 64.6 17.7 19.7 64.6 64.6 0.8 2.6 1.1 197.6 215.6 0.00 0.0000000 67.7
2021-10-14 19:45:00 62.5 23.9 25.1 62.5 62.5 0.0 3.1 1.4 188.7 75.0 0.00 0.0000000 67.7
2021-10-14 19:50:00 61.9 20.9 21.3 61.9 61.9 1.2 3.0 1.5 62.9 60.8 0.00 0.0000000 67.6
2021-10-14 19:55:00 61.1 22.1 22.1 61.1 61.1 0.0 2.6 1.1 115.8 52.0 0.00 0.0000000 67.6
2021-10-14 20:00:00 59.4 31.7 29.2 59.4 59.4 3.5 3.5 2.0 106.2 104.8 0.00 0.0000000 67.6
2021-10-14 20:05:00 59.5 24.6 23.3 59.5 59.5 3.8 4.4 2.7 82.6 131.2 0.00 0.0000000 67.6
2021-10-14 20:10:00 60.6 22.7 22.3 60.6 60.6 2.2 4.2 2.2 20.7 77.2 0.00 0.0000000 67.5
2021-10-14 20:15:00 60.8 19.1 18.4 60.8 60.8 2.4 2.8 1.6 146.2 99.2 0.00 0.0000070 67.5
2021-10-14 20:20:00 65.0 15.8 17.4 65.0 65.0 7.1 9.2 5.1 201.7 134.6 0.00 0.0001535 67.5
2021-10-14 20:25:00 66.7 14.2 16.2 66.7 66.7 4.2 14.4 6.2 347.1 220.4 0.00 0.0000208 67.5
2021-10-14 20:30:00 66.4 15.9 18.6 66.4 66.4 3.8 6.7 4.1 176.6 157.4 0.00 0.0000000 67.5
2021-10-14 20:35:00 65.0 15.6 17.2 65.0 65.0 4.2 4.9 2.6 218.1 196.4 0.00 0.0000000 67.4
2021-10-14 20:40:00 64.9 16.0 17.6 64.9 64.9 5.3 6.3 3.8 329.8 85.7 0.00 0.0000000 67.4
2021-10-14 20:45:00 65.2 20.7 23.9 65.2 65.2 3.3 7.1 5.3 295.9 335.3 0.00 0.0000000 67.4
2021-10-14 20:50:00 64.1 15.4 16.1 64.1 64.1 3.0 11.7 4.7 331.1 331.8 0.00 0.0000000 67.4
2021-10-14 20:55:00 62.7 25.3 26.7 62.7 62.7 3.3 4.0 2.5 297.3 287.0 0.00 0.0000000 67.4
2021-10-14 21:00:00 60.2 29.3 28.0 60.2 60.2 3.0 4.9 3.2 200.9 288.2 0.00 0.0000000 67.3
2021-10-14 21:05:00 58.6 25.9 23.7 58.6 58.6 4.0 7.2 4.1 82.4 8.0 0.00 0.0000000 67.3
2021-10-14 21:10:00 61.9 19.6 19.9 61.9 61.9 5.6 8.3 4.9 9.7 18.6 0.00 0.0000000 67.3
2021-10-14 21:15:00 62.2 17.7 17.7 62.2 62.2 4.6 8.3 5.2 252.3 286.5 0.00 0.0000000 67.2
2021-10-14 21:20:00 61.8 22.0 22.5 61.8 61.8 4.2 6.9 4.4 291.4 309.2 0.00 0.0000000 67.2
2021-10-14 21:25:00 60.3 28.0 27.1 60.3 60.3 4.2 8.1 4.9 278.0 297.8 0.00 0.0000000 67.2
2021-10-14 21:30:00 56.2 31.9 26.6 56.2 56.2 5.6 7.8 5.0 282.4 307.2 0.00 0.0000000 67.2
2021-10-14 21:35:00 55.5 29.1 23.7 55.5 55.5 4.7 6.0 4.4 347.1 313.9 0.00 0.0000000 67.2
2021-10-14 21:40:00 59.8 20.1 18.8 59.8 59.8 6.9 10.1 6.3 284.1 323.0 0.00 0.0000320 67.1
2021-10-14 21:45:00 61.8 17.0 16.4 61.8 61.8 14.2 14.2 8.0 310.8 298.8 0.00 0.0000000 67.1
2021-10-14 21:50:00 62.9 19.0 20.0 62.9 62.9 5.3 13.1 7.4 277.4 285.5 0.00 0.0000000 67.1
2021-10-14 21:55:00 62.2 22.5 23.4 62.2 62.2 4.4 11.3 7.4 285.2 295.4 0.00 0.0000000 67.1
2021-10-14 22:00:00 61.4 19.8 19.7 61.4 61.4 6.7 14.7 6.7 273.6 294.4 0.00 0.0000000 67.0
2021-10-14 22:05:00 60.9 20.2 19.8 60.9 60.9 4.9 10.6 6.5 275.1 283.7 0.00 0.0000000 67.0
2021-10-14 22:10:00 61.2 18.7 18.2 61.2 61.2 12.4 12.4 7.6 321.1 294.2 0.00 0.0000000 67.0
2021-10-14 22:15:00 61.0 20.4 20.0 61.0 61.0 7.2 12.1 7.6 305.5 292.4 0.00 0.0000000 67.0
2021-10-14 22:20:00 59.8 21.4 20.2 59.8 59.8 5.1 8.8 6.2 335.3 297.4 0.00 0.0000000 67.0
2021-10-14 22:25:00 59.6 22.4 21.1 59.6 59.6 4.2 11.2 6.6 310.6 306.9 0.00 0.0000000 66.9
2021-10-14 22:30:00 59.4 20.8 19.2 59.4 59.4 4.9 8.1 5.4 342.4 313.1 0.00 0.0000000 66.9
2021-10-14 22:35:00 59.0 22.8 21.1 59.0 59.0 3.0 6.3 4.3 3.9 316.8 0.00 0.0000000 66.9
2021-10-14 22:40:00 58.6 23.3 21.2 58.6 58.6 5.3 7.1 3.5 280.7 303.6 0.00 0.0000000 66.9
2021-10-14 22:45:00 58.7 24.4 22.4 58.7 58.7 2.1 5.6 3.2 253.8 267.3 0.00 0.0000000 66.8
2021-10-14 22:50:00 58.6 23.7 21.6 58.6 58.6 3.1 4.6 2.9 322.7 260.7 0.00 0.0000000 66.8
2021-10-14 22:55:00 57.4 25.3 22.1 57.4 57.4 2.6 4.4 3.1 267.5 312.4 0.00 0.0000000 66.8
2021-10-14 23:00:00 56.6 31.5 26.7 56.6 56.6 5.1 5.1 2.7 239.8 251.5 0.00 0.0000000 66.8
2021-10-14 23:05:00 59.0 22.1 20.3 59.0 59.0 4.0 9.4 5.9 338.5 272.3 0.00 0.0000000 66.8
2021-10-14 23:10:00 59.3 21.0 19.3 59.3 59.3 13.0 13.0 7.1 336.3 319.7 0.00 0.0000000 66.8
2021-10-14 23:15:00 61.1 18.6 18.0 61.1 61.1 9.9 17.6 10.2 301.9 323.1 0.00 0.0000275 66.7
2021-10-14 23:20:00 60.6 23.0 22.5 60.6 60.6 4.7 15.8 7.9 265.3 300.5 0.00 0.0000000 66.7
2021-10-14 23:25:00 60.8 19.8 19.1 60.8 60.8 6.5 11.2 6.7 281.7 291.9 0.00 0.0000000 66.7
2021-10-14 23:30:00 60.5 20.9 20.3 60.5 60.5 6.2 9.9 7.2 345.9 306.7 0.00 0.0000000 66.7
2021-10-14 23:35:00 58.7 25.5 23.5 58.7 58.7 5.5 7.2 6.1 344.4 329.7 0.00 0.0000000 66.7
2021-10-14 23:40:00 57.5 26.5 23.3 57.5 57.5 3.0 7.4 5.9 302.8 323.7 0.00 0.0000000 66.6
2021-10-14 23:45:00 56.6 29.2 24.8 56.6 56.6 3.5 5.6 3.5 291.3 283.9 0.00 0.0000000 66.6
2021-10-14 23:50:00 56.0 32.5 26.9 56.0 56.0 2.1 4.7 3.1 286.3 274.0 0.00 0.0000000 66.6
2021-10-14 23:55:00 55.6 29.7 24.4 55.6 55.6 3.0 5.3 3.1 311.2 307.8 0.00 0.0000000 66.6
2021-10-15 00:00:00 53.7 33.7 25.8 53.7 53.7 2.8 4.9 3.6 333.6 335.8 0.00 0.0000000 66.5

Data is courtesy of the NM Climate Center. DO NOT USE IN LEGAL PROCEEDINGS.